CheckWX is a tool to help pilots better visualize weather data.  It is not intended as a substitute for an official pre-flight weather briefing.

13:29:13 UTC

KPDK TAF
Dekalb-Peachtree Airport
Atlanta, Georgia, USA
KPDK 021720Z 0218/0318 02005KT P6SM VCSH SCT045 BKN250 TEMPO 0220/0223 VRB10G25KT 3SM TSRA BKN030CB FM030200 03003KT P6SM SCT250 FM031500 10004KT P6SM FEW030 SCT250

Jul-2@
18:00 UTC

Jul-2 @ 18:00 UTC

Jul-3@
02:00 UTC

Jul-3 @ 02:00 UTC

TAF KPDK 021720Z 0218/0318 02005KT P6SM VCSH SCT045 BKN250

Expired

Wind
  • 020° at 5 KTS
Conditions
Area Showers
Cloud Levels
  • Scattered at 4,500' AGL
  • Broken at 25,000' AGL

Jul-2@
20:00 UTC

Jul-2 @ 20:00 UTC

Jul-2@
23:00 UTC

Jul-2 @ 23:00 UTC

TEMPO 0220/0223 VRB10G25KT 3SM TSRA BKN030CB

Expired

Wind
  • Variable at 10 KTS
  • {Gusting to 25 KTS
Conditions
Thunderstorm, Rain
Cloud Levels
  • Broken at 3,000' AGL

Jul-3@
02:00 UTC

Jul-3 @ 02:00 UTC

Jul-3@
15:00 UTC

Jul-3 @ 15:00 UTC

FM030200 03003KT P6SM SCT250

From

From Standard forecast or significant change

Wind
  • 030° at 3 KTS
Cloud Levels
  • Scattered at 25,000' AGL

Jul-3@
15:00 UTC

Jul-3 @ 15:00 UTC

Jul-3@
18:00 UTC

Jul-3 @ 18:00 UTC

FM031500 10004KT P6SM FEW030 SCT250

From

From Standard forecast or significant change

Wind
  • 100° at 4 KTS
Cloud Levels
  • Few at 3,000' AGL
  • Scattered at 25,000' AGL